カンクン の空港の天気 - METARとTAF

カンクン国際空港 ( MMUN / CUN ) - メキシコ キンタナ・ロー州カンクン
飛行場実況気象(Metar)
観測時間08/06 15:49 CDT (08/06 20:49 UTC)
風向・風速東南東 2m/s
視程8050m
天気現象
全天の4割程度の雲 雲底高度 460m
全天の8割程度の雲 雲底高度 2130m
全天を覆う雲 雲底高度 7620m
気温26℃
湿度100%
気圧1014.9hPa
METARMMUN 062049Z 12003KT 5SM SCT015TCU BKN070 OVC250 26/26 A2997 RMK SLP149 57013 964 8/277 BINOVC
過去の天気等 Google飛行場航空写真 Wunderground天気予報

過去48時間のMETAR

飛行場予報(TAF)
発表時間: 8/06 12:08 CDT (8/06 17:08 UTC)
予報対象時間: 6日13時 CDT ~ 7日19時 CDT
風向・風速東南東 8m/s
視程8050m
天気現象弱い雨
全天の8割程度の積乱雲 雲底高度 460m
全天を覆う雲 雲底高度 7620m
6日13時 CDT ~ 6日17時 CDT に一時的に
視程1610m
天気現象雷雨
6日18時 CDT から
風向・風速東 8m/s
視程8050m
天気現象煙霧
全天の8割程度の積乱雲 雲底高度 460m
全天を覆う雲 雲底高度 2440m
6日18時 CDT ~ 6日22時 CDT に一時的に
視程3220m
天気現象雷雨
6日23時 CDT から
風向・風速東南東 4m/s
視程10km以上
天気現象煙霧
全天の4割程度の雲 雲底高度 460m
全天の8割程度の雲 雲底高度 2440m
7日12時 CDT ~ 7日13時 CDT に徐々に
風向・風速東 6m/s
全天の4割程度の雲 雲底高度 460m
全天の8割程度の雲 雲底高度 7620m
TAF MMUN 061708Z 0618/0724 12015KT 5SM -RA BKN015CB OVC250 TX30/0622Z TN24/0710Z
TEMPO 0618/0622 1SM TSRA
FM062300 10015KT 5SM HZ BKN015CB OVC080
TEMPO 0623/0703 2SM TSRA
FM070400 12008KT 6SM HZ SCT015 BKN080
BECMG 0717/0718 10012KT SCT015 BKN250